• Join FlightAware (Why Join?)
  • Login
  • US Flag 
09:35AM EDT


 

Airport Tracker/Info


-or-


 

Live Flight TrackerFlight Track Log ✈ N807SM ✈ 10-May-2013 ✈ KUAO - MMSL / CSL

Flight Track Log - Related Links

Times and Time Zones

All times are in EDT time to prevent confusion due to time zone crossing. See the N807SM flight status page for this flight to view local times or setup timezone preferences in your user account.

Time Position Orientation Groundspeed Altitude Reporting Facility
EDT Latitude Longitude Course Direction KTS MPH feet Rate Location/Type
01:22PM 45.2694 -122.7392 152° Southeast 164 189 1,300  Level Seattle Center
01:23PM 45.2636 -122.7239 118° Southeast 180 207 1,700 1,260 Climbing Seattle Center
01:24PM 45.2239 -122.6753 139° Southeast 191 220 3,200 1,620 Climbing Seattle Center
01:25PM 45.1658 -122.6628 171° South 201 231 5,100 1,800 Climbing Seattle Center
01:26PM 45.1158 -122.6817 195° South 191 220 6,900 1,860 Climbing Seattle Center
01:27PM 44.7878 -122.3710 145° Southeast  Level FlightAware Approximate
01:27PM 45.0744 -122.6525 154° Southeast 175 201 8,900  Level Seattle Center
01:28PM 44.7237 -122.3136 152° Southeast  Level FlightAware Approximate
01:28PM 45.0356 -122.6192 149° Southeast 166 191 10,800  Level Seattle Center
01:29PM 44.9950 -122.5825 147° Southeast 169 194 12,500 1,680 Climbing Seattle Center
01:30PM 44.9536 -122.5472 149° Southeast 172 198 14,200 1,620 Climbing Seattle Center
01:31PM 44.9106 -122.5106 149° Southeast 178 205 15,800 1,560 Climbing Seattle Center
01:32PM 44.8606 -122.4669 148° Southeast 186 214 17,400 1,320 Climbing Seattle Center
01:33PM 44.8147 -122.4267 148° Southeast 192 221 18,500 1,140 Climbing Seattle Center
01:34PM 44.7681 -122.3869 149° Southeast 194 223 19,800 1,140 Climbing Seattle Center
01:35PM 44.7214 -122.3456 148° Southeast 196 226 20,900 1,080 Climbing Seattle Center
01:36PM 44.6722 -122.3028 148° Southeast 202 232 22,100 1,080 Climbing Seattle Center
01:37PM 44.6242 -122.2614 148° Southeast 203 234 23,100 960 Climbing Seattle Center
01:38PM 44.5742 -122.2203 150° Southeast 206 237 24,100 840 Climbing Seattle Center
01:39PM 44.5250 -122.1775 148° Southeast 207 238 24,900 780 Climbing Seattle Center
01:40PM 44.4725 -122.1325 149° Southeast 215 247 25,700 780 Climbing Seattle Center
01:41PM 44.4203 -122.0881 149° Southeast 219 252 26,600 780 Climbing Seattle Center
01:42PM 44.3672 -122.0431 149° Southeast 222 255 27,400 660 Climbing Seattle Center
01:43PM 44.3153 -121.9986 149° Southeast 220 253 28,000 540 Climbing Seattle Center
01:44PM 44.2603 -121.9528 149° Southeast 227 261 28,600 540 Climbing Seattle Center
01:45PM 44.2044 -121.9053 149° Southeast 234 269 29,200 540 Climbing Seattle Center
01:46PM 44.1469 -121.8586 150° Southeast 234 269 29,700 540 Climbing Seattle Center
01:47PM 44.0889 -121.8103 149° Southeast 239 275 30,300 480 Climbing Seattle Center
01:48PM 44.0306 -121.7597 148° Southeast 245 282 30,700 300 Climbing Seattle Center
01:49PM 43.9714 -121.7108 149° Southeast 247 284 31,000 120 Climbing Seattle Center
01:50PM 43.9092 -121.6586 149° Southeast 256 295 31,000  Level Seattle Center
01:51PM 43.8286 -121.5911 149° Southeast 274 315 31,000  Level Seattle Center
01:52PM 43.7708 -121.5444 150° Southeast 286 329 31,000  Level Seattle Center
01:53PM 43.6864 -121.4758 150° Southeast 292 336 31,000  Level Seattle Center
01:54PM 43.6175 -121.4178 149° Southeast 291 335 31,100 300 Climbing Seattle Center
01:55PM 43.5517 -121.3611 148° Southeast 285 328 31,700 480 Climbing Seattle Center
01:56PM 43.4864 -121.3050 148° Southeast 279 321 32,100 300 Climbing Seattle Center
01:57PM 43.4247 -121.2547 149° Southeast 268 308 32,400 240 Climbing Seattle Center
01:58PM 43.3639 -121.2058 150° Southeast 258 297 32,600 240 Climbing Seattle Center
01:59PM 43.3033 -121.1575 150° Southeast 253 291 32,900 180 Climbing Seattle Center
02:00PM 43.2417 -121.1097 151° Southeast 253 291 33,000  Climbing Seattle Center
02:01PM 43.1789 -121.0600 150° Southeast 257 296 33,000  Level Seattle Center
02:02PM 43.1178 -120.9967 143° Southeast 270 311 33,000  Level Seattle Center
02:04PM 43.0122 -120.8764 140° Southeast 278 320 33,000  Level Oakland Center
02:04PM 42.9969 -120.8597 141° Southeast 284 327 33,000  Level Seattle Center
02:05PM 42.9372 -120.7894 139° Southeast 283 326 33,000  Level Seattle Center
02:06PM 42.8658 -120.7061 139° Southeast 281 323 33,000  Level Seattle Center
02:07PM 42.8044 -120.6367 140° Southeast 285 328 33,000  Level Seattle Center
02:08PM 42.7433 -120.5664 140° Southeast 287 330 33,000  Level Seattle Center
02:09PM 42.6819 -120.4967 140° Southeast 288 331 33,000  Level Seattle Center
02:10PM 42.6175 -120.4333 144° Southeast 292 336 33,000  Level Seattle Center
02:11PM 42.5428 -120.4033 164° South 282 325 33,000  Level Seattle Center
02:13PM 42.4664 -120.3708 163° South 285 328 33,000  Level Seattle Center
02:14PM 42.3922 -120.3386 162° South 281 323 33,000  Level Seattle Center
02:15PM 42.3181 -120.3081 163° South 279 321 33,000  Level Seattle Center
02:16PM 42.2447 -120.2761 162° South 277 319 33,000  Level Seattle Center
02:17PM 42.1692 -120.2453 163° South 282 325 33,000  Level Seattle Center
02:18PM 42.0958 -120.2139 162° South 277 319 33,000  Level Seattle Center
02:19PM 42.0217 -120.1828 163° South 279 321 33,000  Level Seattle Center
02:20PM 41.9494 -120.1531 163° South 274 315 33,000  Level Seattle Center
02:21PM 41.8719 -120.1300 168° South 281 323 33,000  Level Seattle Center
02:22PM 41.7844 -120.0992 165° South 275 316 33,000  Level Seattle Center
02:23PM 41.7114 -120.0736 165° South 271 312 33,000  Level Seattle Center
02:24PM 41.6339 -120.0500 167° South 279 321 33,000  Level Seattle Center
02:25PM 41.5739 -120.0294 166° South 276 318 33,000  Level Oakland Center
02:26PM 41.4992 -120.0050 166° South 276 318 33,000  Level Oakland Center
02:27PM 41.4114 -119.9742 165° South 276 318 33,000  Level Seattle Center
02:28PM 41.3514 -119.9550 167° South 274 315 33,000  Level Oakland Center
02:29PM 41.2614 -119.9242 166° South 279 321 33,000  Level Seattle Center
02:30PM 41.1861 -119.9006 167° South 278 320 33,000  Level Seattle Center
02:31PM 41.1111 -119.8756 166° South 278 320 33,000  Level Seattle Center
02:32PM 41.0350 -119.8528 167° South 279 321 33,000  Level Seattle Center
02:33PM 40.9606 -119.8272 165° South 277 319 33,000  Level Seattle Center
02:34PM 40.8692 -119.7983 167° South 280 322 33,000  Level Seattle Center
02:35PM 40.7925 -119.7736 166° South 282 325 33,000  Level Seattle Center
02:36PM 40.7156 -119.7497 167° South 284 327 33,000  Level Seattle Center
02:37PM 40.6564 -119.7289 165° South 281 323 33,000  Level Oakland Center
02:38PM 40.5647 -119.7000 167° South 282 325 33,000  Level Oakland Center
02:39PM 40.4881 -119.6756 166° South 283 326 33,000  Level Oakland Center
02:40PM 40.4106 -119.6508 166° South 285 328 33,000  Level Oakland Center
02:41PM 40.3331 -119.6256 166° South 287 330 33,000  Level Oakland Center
02:42PM 40.2556 -119.6028 167° South 286 329 33,000  Level Oakland Center
02:43PM 40.1781 -119.5769 166° South 287 330 33,000  Level Oakland Center
02:44PM 40.0858 -119.5469 166° South 285 328 33,000  Level Oakland Center
02:45PM 40.0083 -119.5236 167° South 286 329 33,000  Level Oakland Center
02:46PM 39.9308 -119.4983 166° South 287 330 33,000  Level Oakland Center
02:47PM 39.8536 -119.4742 166° South 286 329 33,000  Level Oakland Center
02:48PM 39.7750 -119.4506 167° South 290 334 33,000  Level Oakland Center
02:49PM 39.6981 -119.4253 166° South 286 329 33,000  Level Oakland Center
02:50PM 39.6194 -119.4008 167° South 291 335 33,000  Level Oakland Center
02:51PM 39.5425 -119.3767 166° South 287 330 33,000  Level Oakland Center
02:52PM 39.4492 -119.3481 167° South 288 331 33,000  Level Oakland Center
02:53PM 39.3708 -119.3233 166° South 289 333 33,000  Level Oakland Center
02:54PM 39.2928 -119.2994 167° South 290 334 33,000  Level Oakland Center
02:55PM 39.2175 -119.2633 160° South 291 335 33,000  Level Oakland Center
02:56PM 39.1592 -119.1989 139° Southeast 279 321 33,000  Level Oakland Center
02:57PM 39.0986 -119.1339 140° Southeast 283 326 33,000  Level Oakland Center
02:58PM 39.0250 -119.0542 140° Southeast 288 331 33,000  Level Oakland Center
02:59PM 38.9639 -118.9875 140° Southeast 289 333 33,000  Level Oakland Center
03:01PM 38.9014 -118.9217 141° Southeast 291 335 33,000  Level Oakland Center
03:02PM 38.8406 -118.8550 140° Southeast 290 334 33,000  Level Oakland Center
03:03PM 38.7786 -118.7889 140° Southeast 291 335 33,000  Level Oakland Center
03:04PM 38.7164 -118.7233 141° Southeast 291 335 33,000  Level Oakland Center
03:05PM 38.6567 -118.6592 140° Southeast 284 327 33,000  Level Oakland Center
03:06PM 38.5828 -118.5808 140° Southeast 287 330 33,000  Level Oakland Center
03:07PM 38.5211 -118.5144 140° Southeast 289 333 33,000  Level Oakland Center
03:08PM 38.4594 -118.4503 141° Southeast 287 330 33,000  Level Oakland Center
03:09PM 38.3964 -118.3850 141° Southeast 291 335 33,000  Level Oakland Center
03:10PM 38.3347 -118.3197 140° Southeast 289 333 33,000  Level Oakland Center
03:11PM 38.2739 -118.2536 140° Southeast 288 331 33,000  Level Oakland Center
03:12PM 38.2114 -118.1886 141° Southeast 289 333 33,000  Level Oakland Center
03:13PM 38.1486 -118.1233 141° Southeast 290 334 33,000  Level Oakland Center
03:14PM 38.0772 -118.0489 141° Southeast 288 331 33,000  Level Oakland Center
03:15PM 38.0147 -117.9847 141° Southeast 288 331 33,000  Level Oakland Center
03:16PM 37.9531 -117.9192 140° Southeast 291 335 33,000  Level Oakland Center
03:17PM 37.8906 -117.8553 141° Southeast 291 335 33,000  Level Oakland Center
03:18PM 37.8272 -117.7892 140° Southeast 296 341 33,000  Level Oakland Center
03:19PM 37.7633 -117.7250 142° Southeast 294 338 33,000  Level Oakland Center
03:20PM 37.6894 -117.6472 140° Southeast 290 334 33,000  Level Oakland Center
03:21PM 37.6272 -117.5839 141° Southeast 288 331 33,000  Level Oakland Center
03:22PM 37.5664 -117.5200 140° Southeast 287 330 33,000  Level Oakland Center
03:23PM 37.5031 -117.4567 142° Southeast 290 334 33,000  Level Oakland Center
03:24PM 37.4392 -117.3917 141° Southeast 294 338 33,000  Level Oakland Center
03:25PM 37.3758 -117.3286 142° Southeast 291 335 33,000  Level Oakland Center
03:26PM 37.3125 -117.2647 141° Southeast 292 336 33,000  Level Oakland Center
03:27PM 37.2369 -117.1869 141° Southeast 293 337 33,000  Level Oakland Center
03:28PM 37.1739 -117.1236 141° Southeast 292 336 33,000  Level Oakland Center
03:28PM 37.1625 -117.1094 135° Southeast 292 336 33,000  Level Los Angeles Center
03:29PM 37.1103 -117.0608 143° Southeast 292 336 33,000  Level Oakland Center
03:30PM 37.0483 -116.9961 140° Southeast 290 334 33,000  Level Oakland Center
03:31PM 36.9858 -116.9339 141° Southeast 287 330 33,000  Level Oakland Center
03:32PM 36.9231 -116.8708 141° Southeast 288 331 33,000  Level Oakland Center
03:33PM 36.8981 -116.8439 139° Southeast 289 333 33,000  Level Los Angeles Center
03:34PM 36.8350 -116.7803 141° Southeast 291 335 33,000  Level Los Angeles Center
03:35PM 36.7681 -116.7228 145° Southeast 291 335 33,000  Level Los Angeles Center
03:36PM 36.6933 -116.6794 155° Southeast 294 338 33,000  Level Los Angeles Center
03:37PM 36.6214 -116.6314 152° Southeast 294 338 33,000  Level Los Angeles Center
03:38PM 36.5331 -116.5744 153° Southeast 296 341 33,000  Level Los Angeles Center
03:39PM 36.4594 -116.5267 152° Southeast 299 344 33,000  Level Los Angeles Center
03:40PM 36.3850 -116.4800 153° Southeast 299 344 33,000  Level Los Angeles Center
03:41PM 36.2978 -116.4231 152° Southeast 297 342 33,000  Level Los Angeles Center
03:42PM 36.2236 -116.3764 153° Southeast 297 342 33,000  Level Los Angeles Center
03:43PM 36.1500 -116.3286 152° Southeast 298 343 33,000  Level Los Angeles Center
03:45PM 36.0325 -116.2547 153° Southeast 297 342 33,000  Level Los Angeles Center
03:46PM 35.9583 -116.2081 153° Southeast 298 343 33,000  Level Los Angeles Center
03:47PM 35.8839 -116.1600 152° Southeast 300 345 33,000  Level Los Angeles Center
03:48PM 35.8086 -116.1131 153° Southeast 302 348 33,000  Level Los Angeles Center
03:49PM 35.7194 -116.0567 153° Southeast 301 346 33,000  Level Los Angeles Center
03:50PM 35.6619 -116.0200 153° Southeast 297 342 33,000  Level Los Angeles Center
03:51PM 35.5603 -115.9572 153° Southeast 292 336 33,000  Level Los Angeles Center
03:52PM 35.4875 -115.9103 152° Southeast 294 338 33,000  Level Los Angeles Center
03:53PM 35.4136 -115.8656 154° Southeast 295 339 33,000  Level Los Angeles Center
03:54PM 35.3397 -115.8194 153° Southeast 297 342 33,000  Level Los Angeles Center
03:55PM 35.2678 -115.7775 155° Southeast 291 335 33,000  Level Los Angeles Center
03:56PM 35.1842 -115.7694 175° South 302 348 33,000  Level Los Angeles Center
03:57PM 35.0856 -115.7589 175° South 296 341 33,000  Level Los Angeles Center
03:58PM 35.0033 -115.7492 174° South 296 341 33,000  Level Los Angeles Center
03:59PM 34.9222 -115.7408 175° South 294 338 33,000  Level Los Angeles Center
04:00PM 34.8417 -115.7311 174° South 291 335 33,000  Level Los Angeles Center
04:01PM 34.7611 -115.7214 174° South 291 335 33,000  Level Los Angeles Center
04:02PM 34.6786 -115.7128 175° South 296 341 33,000  Level Los Angeles Center
04:03PM 34.5781 -115.6992 174° South 299 344 33,000  Level Los Angeles Center
04:05PM 34.4989 -115.6794 168° South 297 342 33,000  Level Los Angeles Center
04:06PM 34.4192 -115.6611 169° South 294 338 33,000  Level Los Angeles Center
04:07PM 34.3394 -115.6408 168° South 289 333 33,000  Level Los Angeles Center
04:08PM 34.2603 -115.6219 169° South 289 333 33,000  Level Los Angeles Center
04:09PM 34.1811 -115.6036 169° South 290 334 33,000  Level Los Angeles Center
04:10PM 34.0858 -115.5803 169° South 289 333 33,000  Level Los Angeles Center
04:11PM 34.0053 -115.5611 169° South 292 336 33,000  Level Los Angeles Center
04:12PM 33.9239 -115.5417 169° South 296 341 33,000  Level Los Angeles Center
04:13PM 33.8433 -115.5217 168° South 298 343 33,000  Level Los Angeles Center
04:14PM 33.7794 -115.5067 169° South 294 338 33,000  Level Los Angeles Center
04:15PM 33.6847 -115.4839 169° South 290 334 33,000  Level Los Angeles Center
04:16PM 33.5894 -115.4606 168° South 291 335 33,000  Level Los Angeles Center
04:17PM 33.5106 -115.4436 170° South 289 333 33,000  Level Los Angeles Center
04:18PM 33.4303 -115.4250 169° South 292 336 33,000  Level Los Angeles Center
04:19PM 33.3517 -115.4053 168° South 288 331 33,000  Level Los Angeles Center
04:20PM 33.2728 -115.3869 169° South 289 333 33,000  Level Los Angeles Center
04:21PM 33.1914 -115.3681 169° South 294 338 33,000  Level Los Angeles Center
04:22PM 33.0964 -115.3458 169° South 289 333 33,000  Level Los Angeles Center
04:23PM 33.0169 -115.3272 169° South 289 333 33,000  Level Los Angeles Center
04:24PM 32.9361 -115.3081 169° South 294 338 33,000  Level Los Angeles Center
04:25PM 32.8564 -115.2897 169° South 292 336 33,000  Level Los Angeles Center
04:26PM 32.7753 -115.2703 169° South 295 339 33,000  Level Los Angeles Center
04:27PM 32.6944 -115.2531 170° South 295 339 33,000  Level Los Angeles Center
04:28PM 32.6022 -115.2197 163° South 295 339 33,000  Level Los Angeles Center
04:30PM 32.5223 -115.1705 153° Southeast  Level FlightAware Approximate
04:37PM 32.0494 -114.8815 153° Southeast  Level FlightAware Approximate
04:38PM 31.9818 -114.8404 153° Southeast  Level FlightAware Approximate
04:39PM 31.9141 -114.7994 153° Southeast  Level FlightAware Approximate
04:40PM 31.8465 -114.7585 153° Southeast  Level FlightAware Approximate
04:41PM 31.7788 -114.7176 153° Southeast  Level FlightAware Approximate
04:42PM 31.7112 -114.6768 153° Southeast  Level FlightAware Approximate
04:43PM 31.6437 -114.6354 152° Southeast  Level FlightAware Approximate
04:44PM 31.5769 -114.5928 152° Southeast  Level FlightAware Approximate
04:45PM 31.5100 -114.5503 152° Southeast  Level FlightAware Approximate
04:46PM 31.4419 -114.5107 155° Southeast  Level FlightAware Approximate
04:47PM 31.3729 -114.4731 155° Southeast  Level FlightAware Approximate
04:48PM 31.3040 -114.4355 155° Southeast  Level FlightAware Approximate
04:49PM 31.2361 -114.3955 153° Southeast  Level FlightAware Approximate
04:50PM 31.1682 -114.3554 153° Southeast  Level FlightAware Approximate
04:51PM 31.1003 -114.3153 153° Southeast  Level FlightAware Approximate
04:52PM 31.0324 -114.2753 153° Southeast  Level FlightAware Approximate
04:53PM 30.9645 -114.2354 153° Southeast  Level FlightAware Approximate
04:54PM 30.8966 -114.1955 153° Southeast  Level FlightAware Approximate
04:55PM 30.8286 -114.1557 153° Southeast  Level FlightAware Approximate
04:56PM 30.7607 -114.1159 153° Southeast  Level FlightAware Approximate
04:57PM 30.6927 -114.0762 153° Southeast  Level FlightAware Approximate
04:58PM 30.6247 -114.0366 153° Southeast  Level FlightAware Approximate
04:59PM 30.5567 -113.9970 153° Southeast  Level FlightAware Approximate
05:00PM 30.4886 -113.9579 154° Southeast  Level FlightAware Approximate
05:01PM 30.4202 -113.9192 154° Southeast  Level FlightAware Approximate
05:02PM 30.3519 -113.8805 154° Southeast  Level FlightAware Approximate
05:03PM 30.2835 -113.8419 154° Southeast  Level FlightAware Approximate
05:04PM 30.2151 -113.8034 154° Southeast  Level FlightAware Approximate
05:05PM 30.1468 -113.7648 153° Southeast  Level FlightAware Approximate
05:06PM 30.0789 -113.7251 153° Southeast  Level FlightAware Approximate
05:07PM 30.0110 -113.6855 153° Southeast  Level FlightAware Approximate
05:08PM 29.9433 -113.6457 151° Southeast  Level FlightAware Approximate
05:09PM 29.8767 -113.6033 151° Southeast  Level FlightAware Approximate
05:10PM 29.8101 -113.5609 151° Southeast  Level FlightAware Approximate
05:11PM 29.7424 -113.5212 156° South  Level FlightAware Approximate
05:12PM 29.6726 -113.4863 156° South  Level FlightAware Approximate
05:13PM 29.6029 -113.4514 157° South  Level FlightAware Approximate
05:14PM 29.5338 -113.4150 154° Southeast  Level FlightAware Approximate
05:15PM 29.4653 -113.3770 154° Southeast  Level FlightAware Approximate
05:16PM 29.3968 -113.3389 154° Southeast  Level FlightAware Approximate
05:17PM 29.3284 -113.3008 154° Southeast  Level FlightAware Approximate
05:18PM 29.2600 -113.2627 154° Southeast  Level FlightAware Approximate
05:19PM 29.1916 -113.2247 154° Southeast  Level FlightAware Approximate
05:20PM 29.1232 -113.1867 154° Southeast  Level FlightAware Approximate
05:21PM 29.0547 -113.1487 154° Southeast  Level FlightAware Approximate
05:22PM 28.9863 -113.1108 154° Southeast  Level FlightAware Approximate
05:23PM 28.9179 -113.0728 154° Southeast  Level FlightAware Approximate
05:24PM 28.8495 -113.0348 154° Southeast  Level FlightAware Approximate
05:25PM 28.7811 -112.9968 154° Southeast  Level FlightAware Approximate
05:26PM 28.7127 -112.9588 154° Southeast  Level FlightAware Approximate
05:27PM 28.6443 -112.9209 154° Southeast  Level FlightAware Approximate
05:28PM 28.5760 -112.8829 154° Southeast  Level FlightAware Approximate
05:29PM 28.5077 -112.8449 154° Southeast  Level FlightAware Approximate
05:30PM 28.4393 -112.8069 154° Southeast  Level FlightAware Approximate
05:31PM 28.3710 -112.7690 154° Southeast  Level FlightAware Approximate
05:32PM 28.3027 -112.7309 154° Southeast  Level FlightAware Approximate
05:33PM 28.2344 -112.6928 154° Southeast  Level FlightAware Approximate
05:34PM 28.1662 -112.6548 154° Southeast  Level FlightAware Approximate
05:35PM 28.0979 -112.6168 154° Southeast  Level FlightAware Approximate
05:36PM 28.0296 -112.5789 154° Southeast  Level FlightAware Approximate
05:37PM 27.9613 -112.5410 154° Southeast  Level FlightAware Approximate
05:38PM 27.8930 -112.5032 154° Southeast  Level FlightAware Approximate
05:39PM 27.8247 -112.4654 154° Southeast  Level FlightAware Approximate
05:40PM 27.7563 -112.4278 155° Southeast  Level FlightAware Approximate
05:41PM 27.6874 -112.3913 155° Southeast  Level FlightAware Approximate
05:42PM 27.6186 -112.3548 155° Southeast  Level FlightAware Approximate
05:43PM 27.5497 -112.3184 155° Southeast  Level FlightAware Approximate
05:44PM 27.4809 -112.2820 155° Southeast  Level FlightAware Approximate
05:45PM 27.4120 -112.2457 155° Southeast  Level FlightAware Approximate
05:46PM 27.3431 -112.2094 155° Southeast  Level FlightAware Approximate
05:47PM 27.2742 -112.1731 155° Southeast  Level FlightAware Approximate
05:48PM 27.2053 -112.1369 155° Southeast  Level FlightAware Approximate
05:49PM 27.1365 -112.1004 154° Southeast  Level FlightAware Approximate
05:50PM 27.0679 -112.0636 154° Southeast  Level FlightAware Approximate
05:51PM 26.9993 -112.0267 154° Southeast  Level FlightAware Approximate
05:52PM 26.9307 -111.9900 154° Southeast  Level FlightAware Approximate
05:53PM 26.8620 -111.9532 154° Southeast  Level FlightAware Approximate
05:54PM 26.7934 -111.9165 154° Southeast  Level FlightAware Approximate
05:55PM 26.7248 -111.8799 155° Southeast  Level FlightAware Approximate
05:56PM 26.6561 -111.8433 155° Southeast  Level FlightAware Approximate
05:57PM 26.5874 -111.8067 155° Southeast  Level FlightAware Approximate
05:58PM 26.5187 -111.7702 155° Southeast  Level FlightAware Approximate
05:59PM 26.4501 -111.7337 155° Southeast  Level FlightAware Approximate
06:00PM 26.3814 -111.6973 155° Southeast  Level FlightAware Approximate
06:01PM 26.3127 -111.6609 155° Southeast  Level FlightAware Approximate
06:02PM 26.2439 -111.6246 155° Southeast  Level FlightAware Approximate
06:03PM 26.1752 -111.5883 155° Southeast  Level FlightAware Approximate
06:04PM 26.1065 -111.5520 155° Southeast  Level FlightAware Approximate
06:05PM 26.0377 -111.5158 155° Southeast  Level FlightAware Approximate
06:06PM 25.9690 -111.4796 155° Southeast  Level FlightAware Approximate
06:07PM 25.9002 -111.4435 155° Southeast  Level FlightAware Approximate
06:08PM 25.8314 -111.4074 155° Southeast  Level FlightAware Approximate
06:09PM 25.7627 -111.3714 155° Southeast  Level FlightAware Approximate
06:10PM 25.6939 -111.3354 155° Southeast  Level FlightAware Approximate
06:11PM 25.6251 -111.2994 155° Southeast  Level FlightAware Approximate
06:12PM 25.5563 -111.2635 155° Southeast  Level FlightAware Approximate
06:13PM 25.4874 -111.2276 155° Southeast  Level FlightAware Approximate
06:14PM 25.4186 -111.1917 155° Southeast  Level FlightAware Approximate
06:15PM 25.3498 -111.1560 155° Southeast  Level FlightAware Approximate
06:16PM 25.2810 -111.1202 155° Southeast  Level FlightAware Approximate
06:17PM 25.2121 -111.0845 155° Southeast  Level FlightAware Approximate
06:18PM 25.1432 -111.0488 155° Southeast  Level FlightAware Approximate
06:19PM 25.0744 -111.0132 155° Southeast  Level FlightAware Approximate
06:20PM 25.0054 -110.9777 156° South  Level FlightAware Approximate
06:21PM 24.9362 -110.9430 156° South  Level FlightAware Approximate
06:22PM 24.8669 -110.9084 156° South  Level FlightAware Approximate
06:23PM 24.7976 -110.8738 156° South  Level FlightAware Approximate
06:24PM 24.7284 -110.8392 156° South  Level FlightAware Approximate
06:25PM 24.6597 -110.8032 153° Southeast  Level FlightAware Approximate
06:26PM 24.5923 -110.7646 153° Southeast  Level FlightAware Approximate
06:27PM 24.5248 -110.7260 153° Southeast  Level FlightAware Approximate
06:28PM 24.4573 -110.6875 153° Southeast  Level FlightAware Approximate
06:29PM 24.3877 -110.6538 157° South  Level FlightAware Approximate
06:30PM 24.3179 -110.6207 157° South  Level FlightAware Approximate
06:31PM 24.2481 -110.5876 157° South  Level FlightAware Approximate
06:32PM 24.1783 -110.5546 157° South  Level FlightAware Approximate
06:33PM 24.1087 -110.5210 155° Southeast  Level FlightAware Approximate
06:34PM 24.0395 -110.4863 155° Southeast  Level FlightAware Approximate
06:35PM 23.9704 -110.4516 155° Southeast  Level FlightAware Approximate
06:36PM 23.9012 -110.4170 155° Southeast  Level FlightAware Approximate
06:37PM 23.8320 -110.3825 155° Southeast  Level FlightAware Approximate
06:38PM 23.7628 -110.3479 155° Southeast  Level FlightAware Approximate
06:39PM 23.6936 -110.3134 155° Southeast  Level FlightAware Approximate
06:40PM 23.6253 -110.2770 153° Southeast  Level FlightAware Approximate
06:41PM 23.5576 -110.2394 153° Southeast  Level FlightAware Approximate
06:42PM 23.4893 -110.2029 155° Southeast  Level FlightAware Approximate
06:43PM 23.4201 -110.1684 155° Southeast  Level FlightAware Approximate
06:44PM 23.3510 -110.1338 155° Southeast  Level FlightAware Approximate
06:45PM 23.2812 -110.1009 158° South  Level FlightAware Approximate
06:46PM 23.2108 -110.0696 158° South  Level FlightAware Approximate
06:47PM 23.1448 -110.0307 155° Southeast  Level FlightAware Approximate
06:48PM 23.0757 -109.9962 155° Southeast  Level FlightAware Approximate
06:49PM 23.0063 -109.9625 160° South  Level FlightAware Approximate
06:50PM 22.9485 -109.9387 160° South  Level Estimated
06:51PM 22.9485 -109.9387 160° South  Level Estimated
06:52PM 22.9485 -109.9387 160° South  Level Estimated
06:53PM 22.9485 -109.9387 160° South  Level Estimated
06:54PM 22.9485 -109.9387 160° South  Level Estimated
06:55PM 22.9485 -109.9387 160° South  Level Estimated
06:56PM 22.9485 -109.9387 160° South  Level Estimated
06:57PM 22.9485 -109.9387 160° South  Level Estimated
06:58PM 22.9485 -109.9387 160° South  Level Estimated
06:59PM 22.9485 -109.9387 160° South  Level Estimated
07:00PM 22.9485 -109.9387 160° South  Level Estimated
07:01PM 22.9485 -109.9387 160° South  Level Estimated
07:02PM 22.9485 -109.9387 160° South  Level Estimated
07:03PM 22.9485 -109.9387 160° South  Level Estimated